Time;durP1;ratioP1;P1;durP2;ratioP2;P2;SDS_P1;SDS_P2;PMS_P1;PMS_P2;Temp;Humidity;BMP_temperature;BMP_pressure;BME280_temperature;BME280_humidity;BME280_pressure;Samples;Min_cycle;Max_cycle;Signal;HPM_P1;HPM_P2
2023/03/28 00:02:05;;;;;;;2.30;1.75;;;5.80;99.90;;;;;;5085405;28;20230;-77
2023/03/28 00:04:36;;;;;;;2.60;1.40;;;5.60;99.90;;;;;;5099064;28;20302;-78
2023/03/28 00:07:03;;;;;;;3.45;1.40;;;5.40;99.90;;;;;;5085552;28;20520;-77
2023/03/28 00:09:31;;;;;;;1.90;1.65;;;5.20;99.90;;;;;;5095534;28;20227;-78
2023/03/28 00:11:59;;;;;;;7.03;4.88;;;5.10;99.90;;;;;;5095150;28;20255;-77
2023/03/28 00:14:26;;;;;;;4.35;2.90;;;4.90;99.90;;;;;;5093769;28;20215;-77
2023/03/28 00:16:52;;;;;;;3.20;2.83;;;4.80;99.90;;;;;;5094476;28;20661;-77
2023/03/28 00:19:20;;;;;;;5.88;3.25;;;4.70;99.90;;;;;;5095286;28;20227;-76
2023/03/28 00:21:50;;;;;;;2.25;1.60;;;4.70;99.90;;;;;;5094626;28;20318;-77
2023/03/28 00:24:20;;;;;;;1.63;1.30;;;4.70;99.90;;;;;;5095281;28;20219;-78
2023/03/28 00:26:53;;;;;;;1.67;1.27;;;4.70;99.90;;;;;;5093293;28;20265;-77
2023/03/28 00:29:24;;;;;;;6.97;3.78;;;4.70;99.90;;;;;;5095267;28;20306;-77
2023/03/28 00:31:52;;;;;;;3.22;1.90;;;4.70;99.90;;;;;;5094581;28;20235;-77
2023/03/28 00:34:19;;;;;;;2.33;2.03;;;4.70;99.90;;;;;;5094792;28;20220;-76
2023/03/28 00:36:49;;;;;;;4.97;1.85;;;4.70;99.90;;;;;;5083666;28;20257;-77
2023/03/28 00:39:17;;;;;;;8.45;3.35;;;4.70;99.90;;;;;;5110776;28;20238;-78
2023/03/28 00:41:44;;;;;;;3.47;1.83;;;4.70;99.90;;;;;;5094368;28;20223;-78
2023/03/28 00:44:44;;;;;;;2.17;1.63;;;4.80;99.90;;;;;;5094170;28;20223;-77
2023/03/28 00:47:24;;;;;;;1.90;1.38;;;4.80;99.90;;;;;;5094795;28;20231;-77
2023/03/28 00:49:53;;;;;;;8.27;4.53;;;4.80;99.90;;;;;;5094466;28;20235;-77
2023/03/28 00:52:23;;;;;;;6.80;2.95;;;4.80;99.90;;;;;;5094808;28;20224;-76
2023/03/28 00:54:52;;;;;;;4.65;2.80;;;4.90;99.90;;;;;;5094379;28;20284;-77
2023/03/28 00:57:19;;;;;;;1.92;1.20;;;4.90;99.90;;;;;;5094335;28;20220;-75
2023/03/28 00:59:48;;;;;;;5.53;3.65;;;4.90;99.90;;;;;;5095082;28;20551;-76
2023/03/28 01:02:15;;;;;;;0.93;0.80;;;4.90;99.90;;;;;;5095102;28;20567;-76
2023/03/28 01:04:48;;;;;;;4.07;1.23;;;4.90;99.90;;;;;;5096566;28;20223;-76
2023/03/28 01:07:17;;;;;;;3.50;1.90;;;4.90;99.90;;;;;;5086378;28;20216;-75
2023/03/28 01:09:46;;;;;;;24.42;14.02;;;5.00;99.90;;;;;;5075891;28;20271;-76
2023/03/28 01:12:14;;;;;;;4.05;1.80;;;5.00;99.90;;;;;;5080097;28;20254;-76
2023/03/28 01:14:47;;;;;;;2.97;1.25;;;5.00;99.90;;;;;;5080160;28;20227;-75
2023/03/28 01:17:14;;;;;;;1.27;1.15;;;5.00;99.90;;;;;;5083608;28;20232;-76
2023/03/28 01:19:57;;;;;;;5.65;3.35;;;5.00;99.90;;;;;;5086650;28;20268;-76
2023/03/28 01:22:52;;;;;;;2.00;1.60;;;5.10;99.90;;;;;;5087688;28;20388;-75
2023/03/28 01:25:54;;;;;;;2.83;2.00;;;5.10;99.90;;;;;;5085254;28;20231;-75
2023/03/28 01:28:35;;;;;;;2.40;1.40;;;5.10;99.90;;;;;;5079551;28;20235;-76
2023/03/28 01:31:21;;;;;;;2.78;1.58;;;5.10;99.90;;;;;;5075993;28;20545;-79
2023/03/28 01:34:20;;;;;;;4.72;1.35;;;5.10;99.90;;;;;;5071850;28;20234;-78
2023/03/28 01:37:28;;;;;;;1.33;1.00;;;5.10;99.90;;;;;;5082077;28;20231;-76
2023/03/28 01:40:20;;;;;;;1.85;1.30;;;5.00;99.90;;;;;;5074297;28;20231;-76
2023/03/28 01:42:55;;;;;;;1.80;0.90;;;5.10;99.90;;;;;;5073627;28;20224;-76
2023/03/28 01:45:28;;;;;;;7.97;4.25;;;5.10;99.90;;;;;;5073850;28;20238;-76
2023/03/28 01:48:06;;;;;;;1.75;1.00;;;5.10;99.90;;;;;;5073388;28;20236;-77
2023/03/28 01:50:39;;;;;;;5.03;1.92;;;5.10;99.90;;;;;;5073427;28;20246;-76
2023/03/28 01:53:13;;;;;;;1.67;1.45;;;5.10;99.90;;;;;;5073230;28;20227;-76
2023/03/28 01:55:45;;;;;;;6.00;2.35;;;5.10;99.90;;;;;;5073196;28;20228;-76
2023/03/28 01:58:16;;;;;;;7.20;3.75;;;5.10;99.90;;;;;;5072288;28;20219;-76
2023/03/28 02:00:46;;;;;;;1.90;1.58;;;5.20;99.90;;;;;;5073380;28;20610;-76
2023/03/28 02:03:18;;;;;;;3.53;1.58;;;5.20;99.90;;;;;;5072886;28;20220;-76
2023/03/28 02:05:50;;;;;;;4.13;2.15;;;5.20;99.90;;;;;;5072747;28;20246;-76
2023/03/28 02:08:21;;;;;;;1.88;1.25;;;5.20;99.90;;;;;;5072745;28;20243;-76
2023/03/28 02:10:51;;;;;;;1.77;1.45;;;5.20;99.90;;;;;;5072836;28;20255;-76
2023/03/28 02:13:22;;;;;;;3.30;1.50;;;5.20;99.90;;;;;;5072293;28;20224;-76
2023/03/28 02:15:53;;;;;;;2.42;1.20;;;5.10;99.90;;;;;;5073024;28;20224;-75
2023/03/28 02:18:25;;;;;;;4.65;2.00;;;5.10;99.90;;;;;;5070510;28;20224;-75
2023/03/28 02:20:56;;;;;;;2.40;2.20;;;5.10;99.90;;;;;;5072733;28;20283;-76
2023/03/28 02:23:28;;;;;;;9.27;5.03;;;5.10;99.90;;;;;;5072562;28;20220;-76
2023/03/28 02:25:55;;;;;;;6.97;3.17;;;5.10;99.90;;;;;;5071544;28;20216;-76
2023/03/28 02:28:24;;;;;;;3.28;2.53;;;5.10;99.90;;;;;;5071094;28;20248;-76
2023/03/28 02:30:52;;;;;;;4.70;1.60;;;5.10;99.90;;;;;;5072080;28;20492;-76
2023/03/28 02:33:42;;;;;;;5.35;2.75;;;5.10;99.90;;;;;;5072368;28;20228;-76
2023/03/28 02:36:22;;;;;;;5.88;1.60;;;5.10;99.90;;;;;;5071891;28;20235;-76
2023/03/28 02:39:00;;;;;;;2.13;1.25;;;5.00;99.90;;;;;;5076942;28;20625;-76
2023/03/28 02:41:34;;;;;;;4.85;2.63;;;5.00;99.90;;;;;;5072362;28;20220;-76
2023/03/28 02:44:21;;;;;;;3.03;1.90;;;5.00;99.90;;;;;;5072309;28;20362;-75
2023/03/28 02:46:59;;;;;;;1.55;1.45;;;5.00;99.90;;;;;;5072877;28;20227;-76
2023/03/28 02:49:37;;;;;;;3.45;1.42;;;5.00;99.90;;;;;;5072559;28;20235;-77
2023/03/28 02:52:13;;;;;;;2.38;1.60;;;5.00;99.90;;;;;;5072257;28;20231;-77
2023/03/28 02:54:51;;;;;;;1.92;1.42;;;5.00;99.90;;;;;;5072739;28;20236;-77
2023/03/28 02:57:27;;;;;;;10.73;4.45;;;5.00;99.90;;;;;;5072464;28;20220;-77
2023/03/28 02:59:57;;;;;;;1.50;1.20;;;5.00;99.90;;;;;;5072057;28;20306;-77
2023/03/28 03:02:24;;;;;;;2.28;1.35;;;5.00;99.90;;;;;;5072525;28;20228;-77
2023/03/28 03:04:56;;;;;;;2.58;1.73;;;5.00;99.90;;;;;;5072438;28;20232;-77
2023/03/28 03:07:23;;;;;;;4.18;1.70;;;5.00;99.90;;;;;;5072301;28;20234;-77
2023/03/28 03:09:52;;;;;;;4.00;1.95;;;5.00;99.90;;;;;;5072182;28;20251;-76
2023/03/28 03:12:19;;;;;;;2.72;1.75;;;5.10;99.90;;;;;;5072165;28;20564;-77
2023/03/28 03:14:49;;;;;;;2.75;1.80;;;5.10;99.90;;;;;;5072520;28;20266;-77
2023/03/28 03:17:16;;;;;;;3.33;2.20;;;5.10;99.90;;;;;;5071302;28;20705;-76
2023/03/28 03:19:43;;;;;;;7.32;3.47;;;5.20;99.90;;;;;;5072244;28;20700;-77
2023/03/28 03:22:11;;;;;;;1.23;1.13;;;5.20;99.90;;;;;;5071661;28;20219;-77
2023/03/28 03:24:39;;;;;;;1.25;0.90;;;5.20;99.90;;;;;;5072351;28;20760;-78
2023/03/28 03:27:07;;;;;;;5.80;2.22;;;5.20;99.90;;;;;;5071809;28;20699;-77
2023/03/28 03:29:34;;;;;;;1.58;1.20;;;5.10;99.90;;;;;;5072276;28;20310;-77
2023/03/28 03:32:01;;;;;;;1.67;1.20;;;5.20;99.90;;;;;;5072259;28;20228;-77
2023/03/28 03:34:28;;;;;;;1.75;1.42;;;5.10;99.90;;;;;;5071695;28;20564;-77
2023/03/28 03:36:55;;;;;;;2.00;1.35;;;5.20;99.90;;;;;;5071938;28;20228;-77
2023/03/28 03:39:23;;;;;;;3.58;1.45;;;5.20;99.90;;;;;;5075055;28;20252;-77
2023/03/28 03:41:50;;;;;;;1.65;1.40;;;5.20;99.90;;;;;;5076108;28;20601;-77
2023/03/28 03:44:18;;;;;;;3.13;1.92;;;5.10;99.90;;;;;;5081642;28;20250;-77
2023/03/28 03:46:45;;;;;;;3.22;1.70;;;5.10;99.90;;;;;;5091516;28;20283;-78
2023/03/28 03:49:12;;;;;;;3.03;2.00;;;5.10;99.90;;;;;;5088401;28;20741;-77
2023/03/28 03:51:39;;;;;;;4.40;2.20;;;5.10;99.90;;;;;;5088493;28;20361;-76
2023/03/28 03:54:07;;;;;;;7.97;2.30;;;5.10;99.90;;;;;;5086317;28;20285;-78
2023/03/28 03:56:34;;;;;;;3.75;1.88;;;5.00;99.90;;;;;;5076664;28;20220;-77
2023/03/28 03:59:01;;;;;;;9.57;1.95;;;5.00;99.90;;;;;;5074807;28;20552;-77
2023/03/28 04:01:29;;;;;;;4.30;1.60;;;5.00;99.90;;;;;;5076825;28;20261;-77
2023/03/28 04:03:57;;;;;;;3.72;2.40;;;5.00;99.90;;;;;;5080607;28;20231;-77
2023/03/28 04:06:28;;;;;;;3.47;1.33;;;5.00;99.90;;;;;;5074907;28;20228;-77
2023/03/28 04:08:56;;;;;;;5.90;1.20;;;5.00;99.90;;;;;;5075551;28;20228;-77
2023/03/28 04:11:23;;;;;;;2.08;1.50;;;5.00;99.90;;;;;;5074434;28;20250;-77
2023/03/28 04:13:50;;;;;;;3.05;1.88;;;5.00;99.90;;;;;;5075354;28;20252;-77
2023/03/28 04:16:19;;;;;;;6.85;1.55;;;4.90;99.90;;;;;;5078115;28;20301;-78
2023/03/28 04:18:51;;;;;;;3.25;1.70;;;4.90;99.90;;;;;;5075210;28;20333;-76
2023/03/28 04:21:20;;;;;;;3.53;2.60;;;4.90;99.90;;;;;;5074937;28;20632;-77
2023/03/28 04:23:47;;;;;;;2.72;2.08;;;4.90;99.90;;;;;;5074281;28;20223;-77
2023/03/28 04:26:19;;;;;;;2.35;1.50;;;4.90;99.90;;;;;;5074396;28;20252;-77
2023/03/28 04:28:47;;;;;;;3.58;1.80;;;4.90;99.90;;;;;;5075086;28;20666;-77
2023/03/28 04:31:14;;;;;;;2.40;1.63;;;4.90;99.90;;;;;;5074348;28;20228;-77
2023/03/28 04:33:44;;;;;;;4.95;1.77;;;4.90;99.90;;;;;;5075118;28;20330;-76
2023/03/28 04:36:15;;;;;;;5.30;2.00;;;4.90;99.90;;;;;;5075534;28;20547;-77
2023/03/28 04:38:44;;;;;;;3.95;1.48;;;4.80;99.90;;;;;;5074930;28;20251;-77
2023/03/28 04:41:15;;;;;;;7.90;3.47;;;4.80;99.90;;;;;;5075572;28;20224;-76
2023/03/28 04:43:45;;;;;;;3.25;1.95;;;4.80;99.90;;;;;;5076493;28;20300;-77
2023/03/28 04:46:13;;;;;;;4.35;2.13;;;4.80;99.90;;;;;;5075468;28;20219;-77
2023/03/28 04:48:40;;;;;;;2.13;1.30;;;4.80;99.90;;;;;;5074564;28;20297;-76
2023/03/28 04:51:08;;;;;;;2.20;2.00;;;4.90;99.90;;;;;;5075869;28;20250;-76
2023/03/28 04:53:36;;;;;;;2.28;2.05;;;4.90;99.90;;;;;;5075691;28;20285;-77
2023/03/28 04:56:04;;;;;;;2.67;1.48;;;4.90;99.90;;;;;;5075319;28;20224;-76
2023/03/28 04:58:32;;;;;;;3.97;2.33;;;4.90;99.90;;;;;;5075142;28;20259;-76
2023/03/28 05:01:02;;;;;;;1.90;1.48;;;4.90;99.90;;;;;;5074561;28;20682;-76
2023/03/28 05:03:29;;;;;;;3.10;1.90;;;4.90;99.90;;;;;;5074019;28;20236;-76
2023/03/28 05:05:56;;;;;;;4.32;1.83;;;4.80;99.90;;;;;;5074641;28;20367;-76
2023/03/28 05:08:28;;;;;;;2.95;1.33;;;4.80;99.90;;;;;;5073686;28;20223;-76
2023/03/28 05:10:58;;;;;;;4.03;1.80;;;4.80;99.90;;;;;;5073684;28;20216;-77
2023/03/28 05:13:28;;;;;;;4.25;2.20;;;4.80;99.90;;;;;;5072616;28;20556;-77
2023/03/28 05:16:00;;;;;;;10.90;3.22;;;4.80;99.90;;;;;;5081398;28;20294;-77
2023/03/28 05:18:27;;;;;;;10.68;4.78;;;4.90;99.90;;;;;;5073932;28;20220;-76
2023/03/28 05:20:54;;;;;;;10.05;3.95;;;4.90;99.90;;;;;;5074164;28;20273;-77
2023/03/28 05:23:21;;;;;;;7.13;4.38;;;4.90;99.90;;;;;;5074369;28;20337;-77
2023/03/28 05:25:51;;;;;;;12.60;6.43;;;4.90;99.90;;;;;;5073701;28;20288;-78
2023/03/28 05:28:26;;;;;;;5.10;3.65;;;4.90;99.90;;;;;;5074037;28;20234;-77
2023/03/28 05:30:55;;;;;;;7.13;3.85;;;4.90;99.90;;;;;;5073971;28;20250;-77
2023/03/28 05:33:22;;;;;;;6.35;2.55;;;4.90;99.90;;;;;;5073651;28;20227;-77
2023/03/28 05:35:49;;;;;;;8.48;4.20;;;4.90;99.90;;;;;;5073326;28;20223;-77
2023/03/28 05:38:16;;;;;;;4.50;3.15;;;4.80;99.90;;;;;;5073933;28;20220;-77
2023/03/28 05:40:43;;;;;;;7.63;4.63;;;4.90;99.90;;;;;;5073372;28;20236;-77
2023/03/28 05:43:10;;;;;;;18.95;9.95;;;4.90;99.90;;;;;;5073830;28;20216;-78
2023/03/28 05:45:39;;;;;;;8.25;4.40;;;4.80;99.90;;;;;;5073124;28;20323;-77
2023/03/28 05:48:06;;;;;;;3.42;2.35;;;4.80;99.90;;;;;;5074857;28;20220;-78
2023/03/28 05:50:39;;;;;;;5.18;3.00;;;4.80;99.90;;;;;;5073113;28;20685;-77
2023/03/28 05:53:06;;;;;;;8.68;4.03;;;4.80;99.90;;;;;;5073506;28;20243;-77
2023/03/28 05:55:34;;;;;;;8.30;5.10;;;4.80;99.90;;;;;;5072995;28;20263;-77
2023/03/28 05:58:01;;;;;;;6.78;3.95;;;4.70;99.90;;;;;;5072715;28;20239;-76
2023/03/28 06:00:31;;;;;;;4.40;2.38;;;4.70;99.90;;;;;;5073406;28;20269;-76
2023/03/28 06:03:00;;;;;;;7.32;4.32;;;4.60;99.90;;;;;;5072562;28;20286;-76
2023/03/28 06:05:28;;;;;;;7.10;4.28;;;4.70;99.90;;;;;;5073452;28;20234;-76
2023/03/28 06:08:04;;;;;;;7.85;4.75;;;4.70;99.90;;;;;;5072539;28;20232;-76
2023/03/28 06:10:31;;;;;;;6.78;3.83;;;4.70;99.90;;;;;;5073283;28;20219;-77
2023/03/28 06:12:58;;;;;;;6.78;3.70;;;4.80;99.90;;;;;;5072683;28;20224;-78
2023/03/28 06:15:26;;;;;;;8.45;3.97;;;4.80;99.90;;;;;;5073507;28;20285;-77
2023/03/28 06:17:53;;;;;;;8.23;3.17;;;4.80;99.90;;;;;;5071813;28;20562;-77
2023/03/28 06:20:21;;;;;;;5.95;3.03;;;4.80;99.90;;;;;;5073252;28;20303;-77
2023/03/28 06:22:49;;;;;;;4.43;3.08;;;4.80;99.90;;;;;;5072627;28;20231;-77
2023/03/28 06:25:16;;;;;;;5.88;4.43;;;4.80;99.90;;;;;;5073087;28;20220;-76
2023/03/28 06:27:43;;;;;;;3.88;2.65;;;4.80;99.90;;;;;;5072615;28;20227;-76
2023/03/28 06:30:11;;;;;;;6.50;2.63;;;4.90;99.90;;;;;;5073007;28;20244;-77
2023/03/28 06:32:38;;;;;;;7.45;2.92;;;4.90;99.90;;;;;;5072365;28;20678;-77
2023/03/28 06:35:06;;;;;;;4.07;2.22;;;5.00;99.90;;;;;;5071923;28;20678;-76
2023/03/28 06:37:34;;;;;;;2.40;2.20;;;5.00;99.90;;;;;;5073032;28;20239;-77
2023/03/28 06:40:02;;;;;;;4.00;3.40;;;4.90;99.90;;;;;;5072252;28;20666;-76
2023/03/28 06:42:44;;;;;;;4.50;1.90;;;5.00;99.90;;;;;;5073026;28;20220;-76
2023/03/28 06:45:11;;;;;;;6.20;3.00;;;4.90;99.90;;;;;;5070959;28;20630;-77
2023/03/28 06:47:38;;;;;;;5.10;3.05;;;4.90;99.90;;;;;;5072763;28;20232;-77
2023/03/28 06:50:06;;;;;;;5.32;2.67;;;4.90;99.90;;;;;;5072184;28;20224;-77
2023/03/28 06:52:35;;;;;;;4.40;1.90;;;5.00;99.90;;;;;;5074005;28;20235;-77
2023/03/28 06:55:02;;;;;;;2.25;1.80;;;5.00;99.90;;;;;;5072930;28;20665;-77
2023/03/28 06:57:29;;;;;;;4.28;2.20;;;5.00;99.90;;;;;;5072904;28;20794;-76
2023/03/28 06:59:56;;;;;;;3.28;2.45;;;5.00;99.90;;;;;;5072191;28;20224;-75
2023/03/28 07:02:23;;;;;;;6.63;3.03;;;5.00;99.90;;;;;;5072538;28;20226;-75
2023/03/28 07:04:50;;;;;;;2.83;2.40;;;5.10;99.90;;;;;;5072121;28;20281;-76
2023/03/28 07:07:17;;;;;;;3.65;1.95;;;5.00;99.90;;;;;;5072362;28;20598;-76
2023/03/28 07:09:48;;;;;;;3.85;2.35;;;5.10;99.90;;;;;;5072226;28;20559;-77
2023/03/28 07:12:15;;;;;;;5.55;3.10;;;5.10;99.90;;;;;;5071827;28;20223;-76
2023/03/28 07:14:43;;;;;;;6.30;2.30;;;5.10;99.90;;;;;;5076268;28;20231;-76
2023/03/28 07:17:11;;;;;;;4.53;2.15;;;5.20;99.90;;;;;;5075729;28;20235;-75
2023/03/28 07:19:38;;;;;;;3.30;2.10;;;5.20;99.90;;;;;;5076370;28;20599;-75
2023/03/28 07:22:05;;;;;;;3.03;1.70;;;5.30;99.90;;;;;;5075952;28;20231;-76
2023/03/28 07:24:33;;;;;;;7.22;1.70;;;5.30;99.90;;;;;;5071418;28;20221;-76
2023/03/28 07:27:02;;;;;;;5.03;2.83;;;5.40;99.90;;;;;;5086047;28;20223;-77
2023/03/28 07:29:29;;;;;;;7.90;3.88;;;5.40;99.90;;;;;;5075711;28;20226;-77
2023/03/28 07:31:56;;;;;;;4.97;2.50;;;5.50;99.90;;;;;;5075732;28;20235;-76
2023/03/28 07:34:23;;;;;;;5.35;2.45;;;5.50;99.90;;;;;;5076060;28;20243;-76
2023/03/28 07:36:50;;;;;;;6.03;3.13;;;5.50;99.90;;;;;;5075937;28;20235;-76
2023/03/28 07:39:18;;;;;;;3.40;1.60;;;5.60;99.90;;;;;;5074944;28;20219;-77
2023/03/28 07:41:44;;;;;;;3.55;1.95;;;5.60;99.90;;;;;;5076193;28;20298;-76
2023/03/28 07:44:13;;;;;;;2.85;2.08;;;5.60;99.90;;;;;;5075086;28;20223;-77
2023/03/28 07:46:41;;;;;;;3.95;2.30;;;5.70;99.90;;;;;;5076034;28;20278;-76
2023/03/28 07:49:09;;;;;;;8.18;4.63;;;5.80;99.90;;;;;;5066740;28;20232;-76
2023/03/28 07:51:36;;;;;;;6.82;3.83;;;5.80;99.90;;;;;;5076093;28;20302;-78
2023/03/28 07:54:04;;;;;;;5.15;2.20;;;5.80;99.90;;;;;;5075598;28;20228;-78
2023/03/28 07:56:34;;;;;;;3.15;1.80;;;5.90;99.90;;;;;;5076205;28;20361;-77
2023/03/28 07:59:03;;;;;;;3.80;2.55;;;5.90;99.90;;;;;;5075049;28;20289;-76
2023/03/28 08:01:32;;;;;;;5.10;1.80;;;6.00;99.90;;;;;;5075771;28;20220;-76
2023/03/28 08:03:59;;;;;;;3.25;2.03;;;6.00;99.90;;;;;;5075378;28;20741;-77
2023/03/28 08:06:26;;;;;;;3.35;2.25;;;6.00;99.90;;;;;;5075778;28;20239;-76
2023/03/28 08:08:53;;;;;;;2.83;1.80;;;6.00;99.90;;;;;;5075166;28;20607;-76
2023/03/28 08:11:21;;;;;;;2.88;1.50;;;6.10;99.90;;;;;;5075267;28;20654;-77
2023/03/28 08:13:48;;;;;;;4.78;2.20;;;6.20;99.90;;;;;;5075659;28;20238;-77
2023/03/28 08:16:16;;;;;;;9.48;2.22;;;6.20;99.90;;;;;;5075325;28;20227;-77
2023/03/28 08:18:44;;;;;;;4.47;2.42;;;6.30;99.90;;;;;;5075211;28;20232;-77
2023/03/28 08:21:11;;;;;;;3.10;2.00;;;6.40;99.90;;;;;;5075148;28;20274;-77
2023/03/28 08:23:40;;;;;;;3.15;2.33;;;6.50;99.90;;;;;;5074786;28;20223;-77
2023/03/28 08:26:08;;;;;;;3.95;2.40;;;6.60;99.90;;;;;;5074250;28;20223;-76
2023/03/28 08:28:36;;;;;;;4.38;2.42;;;6.70;99.90;;;;;;5075192;28;20277;-76
2023/03/28 08:31:12;;;;;;;1.90;1.65;;;6.70;99.50;;;;;;5074495;28;20228;-77
2023/03/28 08:33:40;;;;;;;5.20;1.92;;;6.70;98.50;;;;;;5074886;28;20224;-76
2023/03/28 08:36:13;;;;;;;3.10;1.80;;;6.80;98.20;;;;;;5074667;28;20742;-76
2023/03/28 08:38:43;;;;;;;2.78;2.17;;;6.80;97.50;;;;;;5075066;28;20311;-76
2023/03/28 08:41:28;;;;;;;1.60;1.40;;;6.80;97.40;;;;;;5074741;28;20598;-77
2023/03/28 08:44:07;;;;;;;1.63;1.40;;;6.90;97.30;;;;;;5074950;28;20274;-76
2023/03/28 08:46:36;;;;;;;1.75;0.93;;;6.90;97.50;;;;;;5074530;28;20629;-77
2023/03/28 08:49:07;;;;;;;3.78;2.35;;;6.90;96.10;;;;;;5075354;28;20235;-76
2023/03/28 08:51:40;;;;;;;8.05;5.10;;;6.90;95.70;;;;;;5074563;28;20220;-77
2023/03/28 08:54:14;;;;;;;7.63;2.88;;;7.00;96.10;;;;;;5074748;28;20682;-77
2023/03/28 08:56:45;;;;;;;3.42;2.15;;;7.00;96.00;;;;;;5074412;28;20599;-77
2023/03/28 08:59:15;;;;;;;2.80;1.50;;;7.10;95.00;;;;;;5074433;28;20220;-77
2023/03/28 09:01:42;;;;;;;1.50;1.40;;;7.20;94.10;;;;;;5074254;28;20226;-77
2023/03/28 09:04:21;;;;;;;3.53;1.35;;;7.20;93.60;;;;;;5074496;28;20224;-76
2023/03/28 09:06:53;;;;;;;2.00;1.48;;;7.30;92.90;;;;;;5074031;28;20219;-76
2023/03/28 09:09:33;;;;;;;1.70;1.23;;;7.30;92.90;;;;;;5074436;28;20757;-76
2023/03/28 09:12:17;;;;;;;2.30;1.60;;;7.40;92.20;;;;;;5074829;28;20239;-76
2023/03/28 09:15:14;;;;;;;2.60;1.10;;;7.40;92.20;;;;;;5074732;28;20309;-75
2023/03/28 09:17:55;;;;;;;1.80;1.05;;;7.40;91.60;;;;;;5073550;28;20755;-76
2023/03/28 09:20:31;;;;;;;1.00;0.90;;;7.50;91.10;;;;;;5074608;28;20240;-76
2023/03/28 09:23:15;;;;;;;1.45;1.20;;;7.50;90.20;;;;;;5073924;28;20807;-76
2023/03/28 09:25:49;;;;;;;1.45;1.27;;;7.50;88.40;;;;;;5073504;28;20247;-76
2023/03/28 09:28:29;;;;;;;1.88;1.58;;;7.40;86.50;;;;;;5074231;28;20238;-76
2023/03/28 09:30:57;;;;;;;4.18;1.45;;;7.40;86.80;;;;;;5072935;28;20220;-76
2023/03/28 09:33:28;;;;;;;2.17;1.40;;;7.40;86.60;;;;;;5073866;28;20255;-75
2023/03/28 09:35:57;;;;;;;1.83;1.73;;;7.40;86.00;;;;;;5072645;28;20672;-76
2023/03/28 09:38:30;;;;;;;3.08;1.55;;;7.50;87.20;;;;;;5074028;28;20227;-76
2023/03/28 09:40:59;;;;;;;1.92;1.60;;;7.60;87.40;;;;;;5073610;28;20711;-77
2023/03/28 09:43:31;;;;;;;1.25;1.15;;;7.60;86.80;;;;;;5073902;28;20230;-77
2023/03/28 09:46:01;;;;;;;1.90;1.50;;;7.80;86.60;;;;;;5073385;28;20227;-77
2023/03/28 09:48:29;;;;;;;2.97;1.20;;;7.80;86.10;;;;;;5073507;28;20234;-77
2023/03/28 09:50:57;;;;;;;1.20;1.10;;;8.00;85.90;;;;;;5073392;28;20339;-76
2023/03/28 09:53:27;;;;;;;2.60;2.10;;;8.10;83.40;;;;;;5073584;28;20260;-76
2023/03/28 09:55:57;;;;;;;5.43;2.20;;;8.10;82.10;;;;;;5073059;28;20677;-75
2023/03/28 09:58:24;;;;;;;5.80;3.90;;;8.10;82.40;;;;;;5073275;28;20767;-76
2023/03/28 10:00:53;;;;;;;1.55;1.40;;;8.20;82.60;;;;;;5073213;28;20228;-76
2023/03/28 10:03:28;;;;;;;1.77;1.10;;;8.20;81.40;;;;;;5073551;28;20342;-76
2023/03/28 10:05:56;;;;;;;1.30;1.20;;;8.20;81.60;;;;;;5072516;28;20227;-76
2023/03/28 10:08:27;;;;;;;2.95;1.25;;;8.20;81.30;;;;;;5073237;28;20277;-76
2023/03/28 10:10:56;;;;;;;1.73;1.10;;;8.20;81.80;;;;;;5072590;28;20361;-76
2023/03/28 10:13:23;;;;;;;2.63;1.13;;;8.20;82.20;;;;;;5073260;28;20751;-76
2023/03/28 10:15:51;;;;;;;2.42;1.70;;;8.20;82.20;;;;;;5072436;28;20311;-76
2023/03/28 10:18:21;;;;;;;3.15;1.20;;;8.20;82.10;;;;;;5072301;28;20244;-76
2023/03/28 10:20:50;;;;;;;1.65;1.50;;;8.20;82.10;;;;;;5072454;28;20228;-77
2023/03/28 10:23:22;;;;;;;2.35;1.17;;;8.20;81.80;;;;;;5073478;28;20289;-77
2023/03/28 10:25:53;;;;;;;1.10;1.00;;;8.20;81.60;;;;;;5072835;28;20868;-76
2023/03/28 10:28:28;;;;;;;3.17;1.20;;;8.20;81.80;;;;;;5073172;28;20377;-76
2023/03/28 10:30:59;;;;;;;1.50;1.17;;;8.20;80.40;;;;;;5072547;28;20277;-77
2023/03/28 10:33:31;;;;;;;1.90;1.30;;;8.20;79.40;;;;;;5073302;28;20224;-75
2023/03/28 10:36:00;;;;;;;2.92;2.20;;;8.20;79.40;;;;;;5072722;28;20312;-77
2023/03/28 10:38:32;;;;;;;2.60;2.40;;;8.10;78.60;;;;;;5073264;28;20227;-77
2023/03/28 10:41:06;;;;;;;5.22;1.08;;;8.10;79.20;;;;;;5072520;28;20293;-76
2023/03/28 10:43:39;;;;;;;7.78;1.30;;;8.20;79.30;;;;;;5073270;28;20224;-77
2023/03/28 10:46:11;;;;;;;3.90;1.65;;;8.10;80.30;;;;;;5072962;28;20286;-77
2023/03/28 10:48:40;;;;;;;2.25;1.05;;;8.20;79.60;;;;;;5073400;28;20232;-77
2023/03/28 10:51:14;;;;;;;3.28;1.75;;;8.20;79.50;;;;;;5072458;28;20626;-77
2023/03/28 10:54:07;;;;;;;1.38;1.27;;;8.30;78.30;;;;;;5073878;28;20297;-77
2023/03/28 10:56:41;;;;;;;2.40;2.08;;;8.30;77.00;;;;;;5074831;28;20666;-76
2023/03/28 10:59:25;;;;;;;1.33;1.08;;;8.40;78.20;;;;;;5074993;28;20220;-76
2023/03/28 11:02:05;;;;;;;2.67;1.75;;;8.50;78.30;;;;;;5075998;28;20235;-77
2023/03/28 11:04:51;;;;;;;1.95;1.27;;;8.50;77.70;;;;;;5073416;28;20219;-77
2023/03/28 11:07:22;;;;;;;1.23;1.10;;;8.70;77.30;;;;;;5075576;28;20219;-78
2023/03/28 11:09:56;;;;;;;1.35;1.13;;;8.70;76.30;;;;;;5075955;28;20228;-77
2023/03/28 11:12:35;;;;;;;1.38;1.10;;;8.70;76.10;;;;;;5075232;28;20336;-75
2023/03/28 11:15:09;;;;;;;1.95;1.33;;;8.80;76.30;;;;;;5074399;28;20230;-75
2023/03/28 11:17:49;;;;;;;1.23;1.13;;;8.80;76.90;;;;;;5074645;28;20227;-77
2023/03/28 11:20:33;;;;;;;1.92;1.13;;;8.80;75.90;;;;;;5074836;28;20711;-76
2023/03/28 11:23:10;;;;;;;1.30;1.15;;;8.90;76.30;;;;;;5073679;28;20592;-77
2023/03/28 11:25:45;;;;;;;1.35;1.00;;;8.90;75.00;;;;;;5074153;28;20224;-76
2023/03/28 11:28:26;;;;;;;3.00;1.98;;;8.90;73.50;;;;;;5073074;28;20247;-76
2023/03/28 11:30:57;;;;;;;1.40;1.30;;;8.90;73.80;;;;;;5071852;28;20285;-76
2023/03/28 11:33:32;;;;;;;1.77;1.40;;;9.00;73.60;;;;;;5073357;28;20243;-76
2023/03/28 11:36:03;;;;;;;1.50;1.10;;;9.10;73.90;;;;;;5072808;28;20238;-76
2023/03/28 11:38:33;;;;;;;1.60;1.30;;;9.20;74.70;;;;;;5072481;28;20220;-76
2023/03/28 11:41:04;;;;;;;2.05;1.20;;;9.20;73.60;;;;;;5072880;28;20289;-77
2023/03/28 11:43:36;;;;;;;2.45;1.02;;;9.30;71.10;;;;;;5072986;28;20216;-76
2023/03/28 11:46:08;;;;;;;3.58;1.40;;;9.20;70.00;;;;;;5074164;28;20228;-75
2023/03/28 11:48:42;;;;;;;2.15;1.55;;;9.20;70.00;;;;;;5073151;28;20223;-75
2023/03/28 11:51:13;;;;;;;2.00;1.40;;;9.30;69.20;;;;;;5072297;28;20573;-77
2023/03/28 11:53:44;;;;;;;2.83;1.40;;;9.30;67.90;;;;;;5060928;28;20216;-77
2023/03/28 11:56:23;;;;;;;2.13;1.30;;;9.30;68.70;;;;;;5073984;28;20676;-76
2023/03/28 11:58:56;;;;;;;3.85;1.00;;;9.30;66.40;;;;;;5074585;28;20566;-76
2023/03/28 12:01:29;;;;;;;1.58;1.20;;;9.30;65.20;;;;;;5077246;28;20228;-76
2023/03/28 12:04:02;;;;;;;1.65;1.30;;;9.30;65.20;;;;;;5069621;28;20548;-77
2023/03/28 12:06:35;;;;;;;2.75;1.40;;;9.40;65.20;;;;;;5076043;28;20720;-76
2023/03/28 12:09:11;;;;;;;1.60;1.50;;;9.30;64.80;;;;;;5077112;28;20228;-76
2023/03/28 12:11:42;;;;;;;1.23;1.08;;;9.40;65.20;;;;;;5076615;28;20219;-76
2023/03/28 12:14:26;;;;;;;5.47;2.72;;;9.40;63.20;;;;;;5076774;28;20220;-76
2023/03/28 12:16:55;;;;;;;2.67;1.30;;;9.40;62.20;;;;;;5074969;28;20220;-77
2023/03/28 12:19:33;;;;;;;2.65;2.03;;;9.40;62.60;;;;;;5076357;28;20656;-76
2023/03/28 12:22:07;;;;;;;2.42;1.65;;;9.40;63.10;;;;;;5076543;28;20298;-77
2023/03/28 12:24:45;;;;;;;2.17;1.95;;;9.40;63.50;;;;;;5077225;28;20595;-76
2023/03/28 12:27:21;;;;;;;6.13;4.65;;;9.50;64.00;;;;;;5073661;28;20220;-76
2023/03/28 12:29:55;;;;;;;2.30;1.80;;;9.60;64.70;;;;;;5076187;28;20224;-77
2023/03/28 12:32:35;;;;;;;2.38;1.30;;;9.70;63.50;;;;;;5076412;28;20604;-77
2023/03/28 12:35:13;;;;;;;1.38;1.20;;;9.70;62.90;;;;;;5074970;28;20239;-76
2023/03/28 12:37:53;;;;;;;1.85;1.75;;;9.70;61.10;;;;;;5075419;28;20254;-76
2023/03/28 12:40:26;;;;;;;1.52;0.98;;;9.60;60.20;;;;;;5074746;28;20568;-77
2023/03/28 12:42:55;;;;;;;3.72;1.73;;;9.70;62.40;;;;;;5074700;28;20248;-76
2023/03/28 12:45:38;;;;;;;2.53;1.45;;;9.80;63.80;;;;;;5074721;28;20240;-76
2023/03/28 12:48:10;;;;;;;1.83;1.23;;;9.80;63.10;;;;;;5073944;28;20567;-76
2023/03/28 12:50:44;;;;;;;2.80;1.30;;;9.90;61.60;;;;;;5075304;28;20277;-76
2023/03/28 12:53:14;;;;;;;2.75;1.55;;;9.90;59.50;;;;;;5074506;28;20220;-76
2023/03/28 12:55:44;;;;;;;1.40;1.30;;;9.90;60.50;;;;;;5075006;28;20243;-76
2023/03/28 12:58:20;;;;;;;2.55;1.00;;;10.00;60.30;;;;;;5074682;28;20228;-76
2023/03/28 13:01:02;;;;;;;2.75;1.90;;;10.00;59.40;;;;;;5075044;28;20280;-76
2023/03/28 13:03:40;;;;;;;3.60;2.00;;;10.00;58.60;;;;;;5074273;28;20529;-77
2023/03/28 13:06:21;;;;;;;1.48;1.38;;;10.10;58.60;;;;;;5073423;28;20224;-77
2023/03/28 13:09:12;;;;;;;1.17;0.98;;;10.20;57.70;;;;;;5074285;28;20232;-78
2023/03/28 13:11:49;;;;;;;0.80;0.80;;;10.20;57.20;;;;;;5073077;28;20231;-77
2023/03/28 13:14:35;;;;;;;1.40;0.90;;;10.20;56.50;;;;;;5073586;28;20262;-77
2023/03/28 13:17:16;;;;;;;1.00;0.90;;;10.20;56.90;;;;;;5074369;28;20223;-77
2023/03/28 13:19:51;;;;;;;3.63;0.80;;;10.20;57.20;;;;;;5073463;28;20272;-75